This is the latest recevied weather packets stored in our database for station/object G6FCI. If no packets are shown the sender has not sent any weather packets the latest 10 day(s).
| Time | Temp. | Humidity | Pressure | Rain* | Wind** | Luminosity | Snow |
|---|---|---|---|---|---|---|---|
| 1777632843 | 20° C | 68% | 1018.7 hPa | 0 mm | - | - | - |
| 1777631223 | 21.11° C | 61% | 1018.7 hPa | 0 mm | - | - | - |
| 1777623483 | 16.67° C | 72% | 1018.6 hPa | 0 mm | - | - | - |
| 1777622943 | 16.11° C | 70% | 1018.6 hPa | 0 mm | - | - | - |
| 1777622043 | 15.56° C | 72% | 1018.6 hPa | 0 mm | - | - | - |
| 1777620423 | 13.89° C | 75% | 1018.7 hPa | 0 mm | - | - | - |
| 1777617924 | 11.11° C | 80% | 1018.8 hPa | 0 mm | - | - | - |
| 1777616283 | 10° C | 80% | 1018.8 hPa | 0 mm | - | - | - |
| 1777614303 | 9.44° C | 82% | 1018.8 hPa | 0 mm | - | - | - |
| 1777606563 | 8.89° C | 80% | 1019.2 hPa | 0 mm | - | - | - |
| 1777600803 | 10° C | 77% | 1019.7 hPa | 0 mm | - | - | - |
| 1777599903 | 10° C | 78% | 1019.8 hPa | 0 mm | - | - | - |
| 1777597203 | 11.11° C | 76% | 1020.3 hPa | 0 mm | - | - | - |
| 1777586403 | 12.22° C | 79% | 1020.6 hPa | 0 mm | - | - | - |
| 1777585503 | 12.78° C | 79% | 1020.5 hPa | 0 mm | - | - | - |
| 1777584423 | 13.33° C | 79% | 1020.4 hPa | 0 mm | - | - | - |
| 1777583883 | 13.33° C | 79% | 1020.3 hPa | 0 mm | - | - | - |
| 1777582803 | 13.89° C | 79% | 1020.4 hPa | 0 mm | - | - | - |
| 1777581363 | 14.44° C | 79% | 1020.1 hPa | 0 mm | - | - | - |
| 1777580823 | 15° C | 80% | 1019.8 hPa | 0 mm | - | - | - |
| 1777579203 | 16.11° C | 76% | 1019.8 hPa | 0 mm | - | - | - |
| 1777574163 | 20.56° C | 45% | 1019.2 hPa | 0 mm | - | - | - |
| 1777570563 | 22.22° C | 44% | 1019.1 hPa | 0 mm | - | - | - |
| 1777570023 | 22.22° C | 45% | 1019.1 hPa | 0 mm | - | - | - |
| 1777568403 | 22.78° C | 43% | 1019.2 hPa | 0 mm | - | - | - |
* Rain latest hour (hover to see other rain measurements)
** Current wind speed in m/s (hover to see current wind gust speed)